Saint Johns, AZ

6:26 PM MST on May 05, 2015 (GMT -0700)
Saint Johns Industrial | | Change Station
CLOSE
Current Station
Airport
Location: St. Johns,
Elevation: 5725 ft
Nearby Weather Stations

Elev 5725 ft 34.52 °N, 109.38 °W | Updated 32 minutes ago

Light Rain
Light Rain Mist
52 °F
Feels Like 52 °F
N
16
Wind Variable Wind from NW

Today
High -- | Low -- °F
--% Chance of Precip.
Yesterday
High -- | Low -- °F
Precip. -- in
5:23 AM 7:05 PM
Waning Gibbous, 96% visible
Pressure 29.82 in
Visibility 6.0 miles
Clouds Few 1800 ft
Mostly Cloudy 4100 ft
Overcast 5000 ft
Dew Point 48 °F
Humidity 86%
Rainfall 0.07 in
Snow Depth Not available.
UV 0 out of 12
Pollen 6.30 out of 12
Air Quality Not available.
Flu Activity Local Activity
METAR KSJN 060054Z AUTO 31014KT 6SM -RA BR FEW018 BKN041 OVC050 11/09 A2995 RMK AO2 RAE20B45 SLP096 P0001 T01110089

More Conditions Fewer Conditions

Pressure 29.82 in
Visibility 6.0 miles
Clouds Few 1800 ft
Mostly Cloudy 4100 ft
Overcast 5000 ft
Dew Point 48 °F
Humidity 86%
Rainfall 0.07 in
Snow Depth Not available.
UV 0 out of 12
Pollen 6.30 out of 12
Air Quality Not available.
Flu Activity Local Activity
METAR KSJN 060054Z AUTO 31014KT 6SM -RA BR FEW018 BKN041 OVC050 11/09 A2995 RMK AO2 RAE20B45 SLP096 P0001 T01110089

More Conditions Fewer Conditions

10-Day Weather Forecast

Almanac

Astronomy

May. 05, 2015 Rise Set
Actual Time
Civil Twilight
Nautical Twilight
Astronomical Twilight
Moon
Length of Visible Light
Length of Day
Tomorrow will be .
, % of the Moon is Illuminated

Today's Extremes

State Highs State Lows

Community

WunderPhotos

Upload Photos

1,819,032 photos uploaded!

WunderBlogs® & News

Nearby

Air Quality

  Air Quality AQ Index Pollutant
Not available.

Snow Depth

Station Depth Elevation

Earthquake Activity

City Distance Mag. Time & Date
Minimum magnitude displayed is 2.5.

Coastal Water Temperatures

Place Temperature

Stations

Nearby Weather Stations

Station Location Temp. Windchill Dew Point Humidity Wind Precip. Elev Updated Type